Terminal Aerodrome Forecast
Issued by NWS Charleston, WV

Current Version | Previous Version | Graphics & Text | Print | Product List | Glossary On
Versions: 1 2 3 4 5 6 7 8 9 10 11 12 13 14 15 16 17 18 19 20 21 22
000
FTUS41 KRLX 040900 AAA
TAFCRW
TAF AMD
KCRW 040914Z 0409/0506 31007KT 3SM -RA BR BKN005 OVC012
      TEMPO 0409/0412 2SM -RA
     FM041200 33005KT 6SM -RA BR OVC015
     FM041800 33005KT 2SM +RA BR OVC012
     FM050300 36008G13KT 3SM -PL OVC012
     FM050500 35009G16KT 1SM -SNPL OVC008=

USA.gov is the U.S. government's official web portal to all federal, state and local government web resources and services.